Aviation Digital Data Service (ADDS)

Output produced by METARs form (2050 UTC 17 June 2019)
found at http://www.aviationweather.gov/metar/data/
 
Forecast for: SBRJ (SANTOS DUMONT/RI, BR)
Text: TAF SBRJ 171500Z 1718/1806 16010KT 9999 FEW025 TX27/1718Z TN22/1806Z
Forecast period: 1800 UTC 17 June 2019 to 0100 UTC 18 June 2019
Forecast type: FROM: standard forecast or significant change
Winds: from the SSE (160 degrees) at 12 MPH (10 knots; 5.1 m/s)
Visibility: 6 or more miles 10+ km)
Ceiling: at least 12,000 feet AGL
Clouds: few clouds at 2500 feet AGL
Weather: no significant weather forecast for this period
Text: BECMG 1801/1803 02005KT FEW020 RMK PHD
Forecast period: 0100 to 0600 UTC 18 June 2019
Forecast type: BECOMING: Conditions expected to become as follows by 0300 UTC 18 June 2019
Winds: from the NNE (20 degrees) at 6 MPH (5 knots; 2.6 m/s)
Visibility: 6 or more miles 10+ km)
Ceiling: at least 12,000 feet AGL
Clouds: few clouds at 2000 feet AGL
Weather: no significant weather forecast for this period